Time;durP1;ratioP1;P1;durP2;ratioP2;P2;SDS_P1;SDS_P2;PMS_P1;PMS_P2;Temp;Humidity;BMP_temperature;BMP_pressure;BME280_temperature;BME280_humidity;BME280_pressure;Samples;Min_cycle;Max_cycle;Signal;HPM_P1;HPM_P2
2022/01/11 06:48:48;;;;;;;16.73;10.20;;;;;;;;;;10601034;27;20444;-84
2022/01/11 06:53:49;;;;;;;14.15;8.30;;;;;;;;;;10576469;28;20035;-84
2022/01/11 06:58:50;;;;;;;12.18;7.60;;;;;;;;;;10575050;28;20392;-84
2022/01/11 07:03:51;;;;;;;7.85;6.10;;;;;;;;;;10573392;28;20390;-85
2022/01/11 07:08:52;;;;;;;9.13;6.38;;;;;;;;;;10573109;28;20127;-84
2022/01/11 07:13:53;;;;;;;11.55;7.85;;;;;;;;;;10574755;28;20111;-85
2022/01/11 07:18:54;;;;;;;8.23;5.68;;;;;;;;;;10590741;28;20111;-83
2022/01/11 07:23:55;;;;;;;8.02;6.22;;;;;;;;;;10571361;28;20098;-83
2022/01/11 07:28:56;;;;;;;7.90;5.57;;;;;;;;;;10574095;28;20123;-83
2022/01/11 07:33:57;;;;;;;10.23;6.95;;;;;;;;;;10569498;28;20031;-82
2022/01/11 07:38:58;;;;;;;7.93;6.28;;;;;;;;;;10570446;28;20581;-82
2022/01/11 07:43:59;;;;;;;11.52;8.13;;;;;;;;;;10595283;28;20484;-83
2022/01/11 07:48:59;;;;;;;8.10;6.20;;;;;;;;;;10574165;28;20116;-83
2022/01/11 07:54:00;;;;;;;8.23;6.43;;;;;;;;;;10575737;28;20091;-83
2022/01/11 07:59:02;;;;;;;8.73;6.50;;;;;;;;;;10570440;28;20103;-82
2022/01/11 08:04:03;;;;;;;10.18;7.97;;;;;;;;;;10546029;28;20118;-82
2022/01/11 08:09:04;;;;;;;9.48;7.35;;;;;;;;;;10558717;28;20022;-82
2022/01/11 08:14:05;;;;;;;11.65;8.55;;;;;;;;;;10548013;28;20028;-85
2022/01/11 08:19:06;;;;;;;;;;;;;;;;;;10557909;28;20456;-81
2022/01/11 08:24:15;;;;;;;16.25;13.25;;;;;;;;;;10556294;28;19908;-81
2022/01/11 08:29:18;;;;;;;24.42;17.80;;;;;;;;;;10538701;28;20024;-81
2022/01/11 08:34:24;;;;;;;25.88;18.55;;;;;;;;;;10547500;28;20034;-81
2022/01/11 08:39:25;;;;;;;23.70;17.48;;;;;;;;;;10550686;28;20043;-81
2022/01/11 08:44:32;;;;;;;;;;;;;;;;;;10550504;28;20068;-81
2022/01/11 08:49:35;;;;;;;19.77;14.73;;;;;;;;;;10570806;28;19908;-83
2022/01/11 08:54:37;;;;;;;23.15;17.95;;;;;;;;;;10561401;28;20020;-82
2022/01/11 08:59:38;;;;;;;;;;;;;;;;;;10540240;28;20096;-84
2022/01/11 09:04:39;;;;;;;14.93;11.20;;;;;;;;;;10541010;28;19908;-84
2022/01/11 09:10:12;;;;;;;19.80;14.27;;;;;;;;;;10540739;28;20020;-82
2022/01/11 09:15:19;;;;;;;13.02;9.57;;;;;;;;;;10559006;28;20032;-83
2022/01/11 09:20:21;;;;;;;12.10;8.80;;;;;;;;;;10540843;28;20039;-85
2022/01/11 09:25:22;;;;;;;;;;;;;;;;;;10543456;28;20035;-83
2022/01/11 09:30:23;;;;;;;10.90;8.30;;;;;;;;;;10540541;28;19911;-83
2022/01/11 09:35:24;;;;;;;;;;;;;;;;;;10540158;28;20062;-84
2022/01/11 09:40:30;;;;;;;12.50;8.40;;;;;;;;;;10538048;28;19914;-83
2022/01/11 09:45:32;;;;;;;11.57;9.25;;;;;;;;;;10537474;28;20530;-83
2022/01/11 09:50:33;;;;;;;9.43;6.60;;;;;;;;;;10535883;28;20358;-83
2022/01/11 09:55:36;;;;;;;;;;;;;;;;;;10536431;28;20042;-83
2022/01/11 10:00:39;;;;;;;11.88;8.32;;;;;;;;;;10534993;28;19975;-83
2022/01/11 10:05:40;;;;;;;12.20;9.05;;;;;;;;;;10536447;28;20020;-83
2022/01/11 10:10:41;;;;;;;;;;;;;;;;;;10534335;28;20023;-83
2022/01/11 10:15:44;;;;;;;10.25;8.45;;;;;;;;;;10551902;28;19903;-83
2022/01/11 10:20:46;;;;;;;10.40;7.93;;;;;;;;;;10557910;28;20049;-84
2022/01/11 10:25:54;;;;;;;9.75;7.55;;;;;;;;;;10558420;28;20387;-82
2022/01/11 10:30:55;;;;;;;9.60;7.30;;;;;;;;;;10535486;28;20040;-83
2022/01/11 10:36:05;;;;;;;12.30;9.13;;;;;;;;;;10551375;28;20032;-83
2022/01/11 10:41:43;;;;;;;9.85;7.43;;;;;;;;;;10556441;28;20028;-82
2022/01/11 10:46:44;;;;;;;11.80;8.88;;;;;;;;;;10536801;28;20028;-83
2022/01/11 10:51:45;;;;;;;11.25;8.65;;;;;;;;;;10555368;28;20032;-82
2022/01/11 10:56:46;;;;;;;8.50;6.88;;;;;;;;;;10554466;28;20032;-83
2022/01/11 11:01:48;;;;;;;10.13;7.55;;;;;;;;;;10555160;28;20031;-82
2022/01/11 11:06:49;;;;;;;9.65;6.90;;;;;;;;;;10536623;28;20079;-84
2022/01/11 11:12:10;;;;;;;10.23;7.47;;;;;;;;;;10542033;28;20028;-82
2022/01/11 11:17:28;;;;;;;10.65;6.97;;;;;;;;;;10540211;28;20039;-83
2022/01/11 11:22:30;;;;;;;14.68;10.88;;;;;;;;;;10533822;28;20084;-83
2022/01/11 11:27:32;;;;;;;13.35;9.35;;;;;;;;;;10535875;28;20024;-83
2022/01/11 11:32:34;;;;;;;12.23;8.93;;;;;;;;;;10553756;28;20020;-84
2022/01/11 11:37:36;;;;;;;11.80;8.38;;;;;;;;;;10539784;28;20036;-84
2022/01/11 11:42:39;;;;;;;12.18;8.05;;;;;;;;;;10558864;28;20024;-84
2022/01/11 11:47:40;;;;;;;15.48;11.35;;;;;;;;;;10540570;28;20457;-84
2022/01/11 11:52:42;;;;;;;;;;;;;;;;;;10542676;28;20031;-84
2022/01/11 11:57:44;;;;;;;9.20;7.65;;;;;;;;;;10555967;28;19927;-84
2022/01/11 12:02:45;;;;;;;;;;;;;;;;;;10540958;28;20043;-85
2022/01/11 12:08:00;;;;;;;12.95;8.75;;;;;;;;;;10555072;28;19908;-84
2022/01/11 12:13:02;;;;;;;10.40;7.63;;;;;;;;;;10538082;28;20077;-84
2022/01/11 12:18:09;;;;;;;10.48;7.63;;;;;;;;;;10537035;28;20024;-83
2022/01/11 12:23:13;;;;;;;11.30;8.60;;;;;;;;;;10538258;28;20046;-85
2022/01/11 12:28:16;;;;;;;10.18;7.78;;;;;;;;;;10517098;22;20065;-80
2022/01/11 12:33:18;;;;;;;10.65;8.05;;;;;;;;;;10452657;28;20443;-80
2022/01/11 12:38:20;;;;;;;9.55;7.60;;;;;;;;;;10473925;28;20031;-81
2022/01/11 12:43:39;;;;;;;9.80;7.25;;;;;;;;;;10493149;28;20048;-80
2022/01/11 12:48:58;;;;;;;13.93;10.27;;;;;;;;;;10480549;28;20043;-80
2022/01/11 12:54:36;;;;;;;9.40;7.50;;;;;;;;;;10495440;28;20021;-80
2022/01/11 12:59:49;;;;;;;11.48;7.82;;;;;;;;;;10508440;28;20040;-80
2022/01/11 13:04:52;;;;;;;10.25;7.68;;;;;;;;;;10494840;28;20024;-80
2022/01/11 13:10:29;;;;;;;13.52;10.00;;;;;;;;;;10492861;28;20386;-80
2022/01/11 13:15:48;;;;;;;10.18;7.13;;;;;;;;;;10286122;28;20060;-82
2022/01/11 13:21:00;;;;;;;15.27;8.82;;;;;;;;;;10326408;28;20057;-81
2022/01/11 13:26:02;;;;;;;13.27;9.13;;;;;;;;;;10491114;28;20043;-81
2022/01/11 13:31:08;;;;;;;12.85;10.35;;;;;;;;;;10492832;28;20028;-81
2022/01/11 13:36:10;;;;;;;9.68;7.28;;;;;;;;;;10516636;28;20107;-81
2022/01/11 13:41:13;;;;;;;10.50;7.13;;;;;;;;;;10510829;28;20105;-82
2022/01/11 13:46:21;;;;;;;10.20;7.32;;;;;;;;;;10513701;28;20378;-82
2022/01/11 13:51:31;;;;;;;11.40;7.35;;;;;;;;;;10495468;28;20042;-82
2022/01/11 13:56:41;;;;;;;9.43;6.70;;;;;;;;;;10492582;28;20108;-83
2022/01/11 14:01:42;;;;;;;10.98;6.13;;;;;;;;;;10492932;28;20115;-79
2022/01/11 14:06:43;;;;;;;;;;;;;;;;;;10488339;28;20024;-79
2022/01/11 14:12:03;;;;;;;8.90;5.70;;;;;;;;;;10492255;28;19924;-81
2022/01/11 14:17:14;;;;;;;8.02;4.90;;;;;;;;;;10491473;28;20063;-81
2022/01/11 14:22:15;;;;;;;8.90;4.75;;;;;;;;;;10489919;28;20052;-82
2022/01/11 14:27:37;;;;;;;8.43;3.90;;;;;;;;;;10490258;28;20051;-81
2022/01/11 14:32:48;;;;;;;10.90;4.60;;;;;;;;;;10490740;28;20375;-81
2022/01/11 14:38:07;;;;;;;7.93;4.10;;;;;;;;;;10505491;28;20024;-83
2022/01/11 14:43:16;;;;;;;8.45;4.47;;;;;;;;;;10490747;28;20052;-83
2022/01/11 14:48:28;;;;;;;8.10;4.30;;;;;;;;;;10510296;28;20040;-82
2022/01/11 14:53:34;;;;;;;7.28;3.70;;;;;;;;;;10492073;28;20081;-83
2022/01/11 14:58:42;;;;;;;6.70;3.85;;;;;;;;;;10489816;28;20068;-83
2022/01/11 15:03:56;;;;;;;10.00;5.63;;;;;;;;;;10490047;28;20124;-82
2022/01/11 15:09:01;;;;;;;7.72;5.40;;;;;;;;;;10502404;28;20020;-84
2022/01/11 15:14:09;;;;;;;7.72;5.13;;;;;;;;;;10519704;28;20025;-79
2022/01/11 15:19:14;;;;;;;8.48;5.00;;;;;;;;;;10503940;28;20059;-80
2022/01/11 15:24:15;;;;;;;8.90;4.10;;;;;;;;;;10481088;28;20395;-77
2022/01/11 15:29:19;;;;;;;;;;;;;;;;;;10490505;28;20071;-78
2022/01/11 15:34:21;;;;;;;8.85;4.50;;;;;;;;;;10490117;28;19904;-79
2022/01/11 15:39:23;;;;;;;5.15;4.00;;;;;;;;;;10492423;28;20024;-78
2022/01/11 15:44:47;;;;;;;5.63;3.83;;;;;;;;;;10502449;28;20024;-78
2022/01/11 15:49:48;;;;;;;6.35;4.05;;;;;;;;;;10508780;28;20031;-78
2022/01/11 15:54:49;;;;;;;;;;;;;;;;;;10506032;28;20033;-78
2022/01/11 16:05:38;;;;;;;5.85;4.00;;;;;;;;;;10522695;28;20033;-78
2022/01/11 16:27:58;;;;;;;6.72;4.03;;;;;;;;;;10523806;28;20111;-79
2022/01/11 16:33:00;;;;;;;7.30;3.50;;;;;;;;;;10526701;28;20572;-79
2022/01/11 16:38:05;;;;;;;7.65;4.68;;;;;;;;;;10506231;28;20029;-79
2022/01/11 16:43:17;;;;;;;8.35;5.50;;;;;;;;;;10504392;28;20419;-80
2022/01/11 16:48:18;;;;;;;8.43;5.32;;;;;;;;;;10499686;28;20021;-78
2022/01/11 16:53:41;;;;;;;8.98;5.78;;;;;;;;;;10500206;28;20020;-80
2022/01/11 16:58:45;;;;;;;8.70;6.28;;;;;;;;;;10515356;28;20056;-79
2022/01/11 17:03:46;;;;;;;;;;;;;;;;;;10496504;28;20082;-79
2022/01/11 17:08:47;;;;;;;10.50;7.47;;;;;;;;;;10495844;28;19908;-78
2022/01/11 17:13:49;;;;;;;12.95;7.60;;;;;;;;;;10498931;28;20032;-79
2022/01/11 17:18:59;;;;;;;12.45;8.70;;;;;;;;;;10503187;28;20056;-81
2022/01/11 17:24:48;;;;;;;13.35;8.90;;;;;;;;;;10400433;28;20072;-86
